Portada
METAR-TAF:

METAR-TAF

Aeropuertos :

Logroño, España

Aeropuerto de Logroño-Agoncillo

latitud: 42-27N, longitud: 002-20W, altitud: 353 m

Observación

El informe se hizo hace 34 minutos, a las 04:00 UTC
Viento 5 kt del oeste-suroeste
Temperatura 17°C
Humedad 72%
Presión 1014 hPa
Visibilidad 10 km o más
Escasas nubes a una altura de 3000 ft
Cielo nuboso a una altura de 5300 ft

METAR: LELO 210400Z 25005KT 9999 FEW030 BKN053 17/12 Q1014

Hora: 06:34 (04:34 UTC)

Pronóstico

El informe se hizo hace 2 horas y 34 minutos, a las 02:00 UTC
Pronóstico válido del 21 a las 03 UTC al 21 a las 12 UTC
Viento 8 kt del oeste
Visibilidad 10 km o más
Cielo nuboso a una altura de 2500 ft

TAF: LELO 210200Z 2103/2112 28008KT 9999 BKN025

Observaciones y pronósticos meteorológicos de más de 4000 aeropuertos (mensajes METAR y TAF).

Los puntos amarillos y rojos representan las estaciones disponibles.

Ponga el ratón en el punto deseado para ver el nombre de la estación.

Haga clic para ver las observaciones y los pronósticos meteorológicos.

Para cambiar el mapa : haga clic en los botones verdes con una cruz de color negro para hacer un zoom, en el botón verde con un guión para alejar o en las flechas verdes para mapas adyacentes.


METAR-TAF: